Time;durP1;ratioP1;P1;durP2;ratioP2;P2;SDS_P1;SDS_P2;PMS_P1;PMS_P2;Temp;Humidity;BMP_temperature;BMP_pressure;BME280_temperature;BME280_humidity;BME280_pressure;Samples;Min_cycle;Max_cycle;Signal;HPM_P1;HPM_P2
2021/08/08 00:01:54;;;;;;;4.70;0.30;;;26.20;51.90;;;;;;5046214;28;20037;-38
2021/08/08 00:04:22;;;;;;;0.68;0.20;;;26.20;52.00;;;;;;5049000;28;20132;-44
2021/08/08 00:06:49;;;;;;;1.50;0.30;;;26.20;52.00;;;;;;5049632;28;20041;-46
2021/08/08 00:09:16;;;;;;;1.35;0.15;;;26.20;52.00;;;;;;5048743;28;20073;-38
2021/08/08 00:11:43;;;;;;;3.90;1.33;;;26.10;52.00;;;;;;5048831;28;20148;-38
2021/08/08 00:14:10;;;;;;;0.43;0.20;;;26.20;52.20;;;;;;5044368;28;20140;-38
2021/08/08 00:16:39;;;;;;;0.30;0.10;;;26.10;52.10;;;;;;5048178;28;20064;-38
2021/08/08 00:19:06;;;;;;;0.65;0.20;;;26.10;52.20;;;;;;5044185;28;20073;-38
2021/08/08 00:21:33;;;;;;;0.40;0.17;;;26.10;52.20;;;;;;5048304;28;20056;-38
2021/08/08 00:24:00;;;;;;;0.63;0.13;;;26.10;52.30;;;;;;5042427;28;20531;-37
2021/08/08 00:26:27;;;;;;;1.77;0.10;;;26.20;52.40;;;;;;5036957;28;20048;-38
2021/08/08 00:28:58;;;;;;;4.78;0.30;;;26.10;52.40;;;;;;5034553;28;20414;-37
2021/08/08 00:31:26;;;;;;;6.43;0.10;;;26.10;52.50;;;;;;5032669;28;20041;-38
2021/08/08 00:34:08;;;;;;;0.80;0.10;;;26.20;52.60;;;;;;5047926;28;20525;-38
2021/08/08 00:36:35;;;;;;;0.20;0.10;;;26.10;52.60;;;;;;5045426;28;20618;-38
2021/08/08 00:39:04;;;;;;;2.60;0.20;;;26.10;52.60;;;;;;5039865;28;20045;-38
2021/08/08 00:41:32;;;;;;;1.55;0.20;;;26.10;52.70;;;;;;5037494;28;20601;-38
2021/08/08 00:44:00;;;;;;;1.33;0.15;;;26.20;52.80;;;;;;5045825;28;20068;-38
2021/08/08 00:46:27;;;;;;;5.55;0.45;;;26.20;52.80;;;;;;5032331;28;20131;-38
2021/08/08 00:48:55;;;;;;;1.42;0.10;;;26.20;52.90;;;;;;5032169;28;20522;-38
2021/08/08 00:51:27;;;;;;;1.33;0.20;;;26.20;52.90;;;;;;5035575;28;20095;-38
2021/08/08 00:53:55;;;;;;;4.38;0.10;;;26.20;53.00;;;;;;5041506;28;20701;-38
2021/08/08 00:56:22;;;;;;;1.52;0.10;;;26.10;52.90;;;;;;5047027;28;20076;-38
2021/08/08 00:58:50;;;;;;;1.13;0.20;;;26.20;53.00;;;;;;5031475;28;20418;-38
2021/08/08 01:01:25;;;;;;;1.98;0.20;;;26.10;52.90;;;;;;5049660;28;20399;-38
2021/08/08 01:03:55;;;;;;;1.05;0.20;;;26.20;52.90;;;;;;5033955;28;20037;-38
2021/08/08 01:06:32;;;;;;;0.80;0.10;;;26.10;52.80;;;;;;5036226;28;20584;-38
2021/08/08 01:09:05;;;;;;;0.55;0.10;;;26.10;52.80;;;;;;5040772;28;20049;-38
2021/08/08 01:11:37;;;;;;;1.88;0.52;;;26.20;52.90;;;;;;5045325;28;20518;-38
2021/08/08 01:14:05;;;;;;;0.20;0.10;;;26.20;52.80;;;;;;5046066;28;20041;-38
2021/08/08 01:16:37;;;;;;;0.95;0.22;;;26.20;52.90;;;;;;5013235;28;20055;-38
2021/08/08 01:19:08;;;;;;;0.40;0.10;;;26.20;52.90;;;;;;5025957;28;20099;-38
2021/08/08 01:21:39;;;;;;;1.75;0.10;;;26.20;52.90;;;;;;5047084;28;20510;-38
2021/08/08 01:24:11;;;;;;;2.83;0.20;;;26.20;52.90;;;;;;5062248;28;20041;-38
2021/08/08 01:26:42;;;;;;;1.55;0.10;;;26.10;52.80;;;;;;5045422;28;20040;-38
2021/08/08 01:29:09;;;;;;;2.42;0.10;;;26.10;52.90;;;;;;5038926;28;20046;-40
2021/08/08 01:31:37;;;;;;;0.40;0.28;;;26.10;52.90;;;;;;5028956;28;20048;-38
2021/08/08 01:34:04;;;;;;;0.47;0.10;;;26.10;52.90;;;;;;5046767;28;20098;-38
2021/08/08 01:36:31;;;;;;;1.00;0.08;;;26.10;53.00;;;;;;5045399;28;20052;-38
2021/08/08 01:39:10;;;;;;;2.17;0.65;;;26.10;53.00;;;;;;5045468;28;20077;-39
2021/08/08 01:41:44;;;;;;;2.17;0.10;;;26.10;53.00;;;;;;5042600;28;20384;-39
2021/08/08 01:44:12;;;;;;;0.98;0.17;;;26.10;53.00;;;;;;5032650;28;20585;-38
2021/08/08 01:46:45;;;;;;;1.73;0.10;;;26.10;53.10;;;;;;5028491;28;20041;-38
2021/08/08 01:49:22;;;;;;;0.63;0.30;;;26.10;53.10;;;;;;5040185;28;20053;-39
2021/08/08 01:51:51;;;;;;;1.35;0.10;;;26.10;53.10;;;;;;5045874;28;20052;-40
2021/08/08 01:54:19;;;;;;;0.82;0.65;;;26.10;53.10;;;;;;5043758;28;20396;-40
2021/08/08 01:56:52;;;;;;;2.38;0.63;;;26.10;53.10;;;;;;5044601;28;20492;-39
2021/08/08 01:59:20;;;;;;;0.65;0.10;;;26.10;53.10;;;;;;5042132;28;20128;-39
2021/08/08 02:01:47;;;;;;;1.27;0.65;;;26.00;53.10;;;;;;5043994;28;20103;-39
2021/08/08 02:04:20;;;;;;;1.70;0.03;;;26.10;53.10;;;;;;5048530;28;20073;-38
2021/08/08 02:06:53;;;;;;;0.88;0.20;;;26.00;53.10;;;;;;5042598;28;20065;-38
2021/08/08 02:09:22;;;;;;;0.40;0.10;;;26.00;53.00;;;;;;5042745;28;20049;-38
2021/08/08 02:11:51;;;;;;;0.10;0.10;;;26.10;53.10;;;;;;5044735;28;20049;-39
2021/08/08 02:14:21;;;;;;;1.35;0.20;;;26.00;53.00;;;;;;5045956;28;20041;-39
2021/08/08 02:16:50;;;;;;;0.63;0.08;;;26.00;52.90;;;;;;5044133;28;20045;-39
2021/08/08 02:19:20;;;;;;;2.83;0.20;;;26.00;52.90;;;;;;5045558;28;20131;-39
2021/08/08 02:21:53;;;;;;;0.47;0.10;;;26.00;52.90;;;;;;5043258;28;20110;-38
2021/08/08 02:24:23;;;;;;;1.25;0.10;;;26.00;52.90;;;;;;5044699;28;20143;-39
2021/08/08 02:27:01;;;;;;;1.80;0.45;;;26.00;52.90;;;;;;5039095;28;20538;-38
2021/08/08 02:29:29;;;;;;;1.55;0.10;;;26.00;52.90;;;;;;5043612;28;20049;-39
2021/08/08 02:31:56;;;;;;;0.20;0.10;;;26.00;52.90;;;;;;5025177;28;20056;-39
2021/08/08 02:34:32;;;;;;;0.30;0.10;;;26.00;52.90;;;;;;5043073;28;20514;-39
2021/08/08 02:37:00;;;;;;;0.90;0.10;;;26.00;52.90;;;;;;5032073;28;20045;-39
2021/08/08 02:39:27;;;;;;;0.22;0.10;;;25.90;52.80;;;;;;5043666;28;20045;-38
2021/08/08 02:41:54;;;;;;;1.45;0.20;;;26.00;52.90;;;;;;5052940;28;20075;-41
2021/08/08 02:44:23;;;;;;;0.32;0.32;;;25.90;52.80;;;;;;5053782;28;20087;-39
2021/08/08 02:46:51;;;;;;;1.23;0.52;;;25.90;52.80;;;;;;5060024;28;20086;-38
2021/08/08 02:49:19;;;;;;;0.40;0.10;;;25.90;52.80;;;;;;5029074;28;20504;-39
2021/08/08 02:51:47;;;;;;;0.20;0.10;;;26.00;52.80;;;;;;5035509;28;20041;-38
2021/08/08 02:54:15;;;;;;;0.65;0.20;;;25.90;52.70;;;;;;5041877;28;20069;-45
2021/08/08 02:56:44;;;;;;;3.03;0.93;;;25.90;52.70;;;;;;5040887;28;20050;-38
2021/08/08 02:59:11;;;;;;;2.40;0.20;;;25.90;52.70;;;;;;5033228;28;20048;-39
2021/08/08 03:01:47;;;;;;;0.83;0.20;;;25.90;52.70;;;;;;5032006;28;20499;-39
2021/08/08 03:04:14;;;;;;;0.98;0.10;;;25.90;52.70;;;;;;5049620;28;20045;-38
2021/08/08 03:06:45;;;;;;;0.20;0.10;;;25.90;52.70;;;;;;5042276;28;20048;-39
2021/08/08 03:09:12;;;;;;;0.75;0.10;;;25.90;52.80;;;;;;5044735;28;20064;-39
2021/08/08 03:11:45;;;;;;;1.17;0.43;;;25.90;52.80;;;;;;5049736;28;20047;-39
2021/08/08 03:14:14;;;;;;;0.20;0.20;;;25.80;52.70;;;;;;5050840;28;20053;-39
2021/08/08 03:16:41;;;;;;;0.85;0.32;;;25.90;52.80;;;;;;5064760;28;20124;-39
2021/08/08 03:19:10;;;;;;;1.17;0.20;;;25.90;52.80;;;;;;5034623;28;20052;-40
2021/08/08 03:21:37;;;;;;;0.65;0.10;;;25.90;52.80;;;;;;5043985;28;20047;-39
2021/08/08 03:24:05;;;;;;;0.63;0.10;;;25.90;52.90;;;;;;5049551;28;20041;-38
2021/08/08 03:26:34;;;;;;;0.65;0.20;;;25.80;52.80;;;;;;5046354;28;20052;-39
2021/08/08 03:29:01;;;;;;;2.60;0.60;;;25.90;52.90;;;;;;5033678;28;20045;-39
2021/08/08 03:31:30;;;;;;;1.02;0.10;;;25.80;52.80;;;;;;5050286;28;20410;-40
2021/08/08 03:33:57;;;;;;;0.55;0.20;;;25.80;52.80;;;;;;5044167;28;20345;-39
2021/08/08 03:36:28;;;;;;;1.67;0.25;;;25.80;52.80;;;;;;5036759;28;20570;-44
2021/08/08 03:38:56;;;;;;;0.80;0.10;;;25.80;53.40;;;;;;5041413;28;20057;-41
2021/08/08 03:41:23;;;;;;;1.85;0.50;;;25.80;52.80;;;;;;5037493;28;20080;-39
2021/08/08 03:43:50;;;;;;;0.65;0.20;;;25.80;52.80;;;;;;5048818;28;20437;-40
2021/08/08 03:46:17;;;;;;;1.05;0.20;;;25.80;52.80;;;;;;5051498;28;20110;-40
2021/08/08 03:48:45;;;;;;;1.40;0.20;;;25.80;52.80;;;;;;5048591;28;20518;-39
2021/08/08 03:51:12;;;;;;;0.40;0.30;;;25.80;52.70;;;;;;5060157;28;20585;-39
2021/08/08 03:53:41;;;;;;;0.95;0.20;;;25.70;52.70;;;;;;5048678;28;20127;-39
2021/08/08 03:56:09;;;;;;;1.48;0.10;;;25.80;52.70;;;;;;5047359;28;20041;-39
2021/08/08 03:58:36;;;;;;;1.70;0.20;;;25.70;52.60;;;;;;5048204;28;20045;-38
2021/08/08 04:01:05;;;;;;;5.18;0.13;;;25.80;52.70;;;;;;5048764;28;20044;-38
2021/08/08 04:03:35;;;;;;;0.90;0.40;;;25.70;52.60;;;;;;5047413;28;20550;-39
2021/08/08 04:06:02;;;;;;;1.05;0.22;;;25.70;52.60;;;;;;5049301;28;20474;-39
2021/08/08 04:08:30;;;;;;;1.65;0.10;;;25.70;52.60;;;;;;5047548;28;20049;-38
2021/08/08 04:10:58;;;;;;;6.18;0.55;;;25.70;52.60;;;;;;5047327;28;20583;-38
2021/08/08 04:13:27;;;;;;;2.88;0.32;;;25.70;52.60;;;;;;5049855;28;20055;-38
2021/08/08 04:15:54;;;;;;;5.10;0.40;;;25.70;52.60;;;;;;5033040;28;20040;-39
2021/08/08 04:18:25;;;;;;;2.65;0.30;;;25.70;52.60;;;;;;5045736;28;20131;-39
2021/08/08 04:20:52;;;;;;;0.98;0.38;;;25.70;52.60;;;;;;5059388;28;20124;-38
2021/08/08 04:23:20;;;;;;;1.20;0.20;;;25.70;52.60;;;;;;5036628;28;20055;-38
2021/08/08 04:25:48;;;;;;;1.98;0.20;;;25.70;52.60;;;;;;5044386;28;20042;-38
2021/08/08 04:28:17;;;;;;;1.88;0.10;;;25.70;52.60;;;;;;5031511;28;20046;-38
2021/08/08 04:30:44;;;;;;;1.00;0.13;;;25.70;52.60;;;;;;5037289;28;20099;-38
2021/08/08 04:33:11;;;;;;;1.08;0.30;;;25.60;52.60;;;;;;5043184;28;20094;-38
2021/08/08 04:35:39;;;;;;;2.67;0.90;;;25.60;52.60;;;;;;5048428;28;20037;-39
2021/08/08 04:38:06;;;;;;;1.02;0.13;;;25.60;52.60;;;;;;5047098;28;20590;-38
2021/08/08 04:40:34;;;;;;;1.17;0.10;;;25.60;52.70;;;;;;5047977;28;20041;-38
2021/08/08 04:43:03;;;;;;;0.20;0.17;;;25.60;52.70;;;;;;5048038;28;20052;-38
2021/08/08 04:45:32;;;;;;;0.47;0.40;;;25.60;52.70;;;;;;5046530;28;20049;-38
2021/08/08 04:47:59;;;;;;;1.17;0.40;;;25.60;52.70;;;;;;5046518;28;20048;-38
2021/08/08 04:50:26;;;;;;;1.85;0.20;;;25.60;52.70;;;;;;5046681;28;20052;-38
2021/08/08 04:52:54;;;;;;;0.63;0.40;;;25.60;52.80;;;;;;5030848;28;20041;-39
2021/08/08 04:55:21;;;;;;;0.60;0.10;;;25.60;52.80;;;;;;5048203;28;20037;-38
2021/08/08 04:57:49;;;;;;;2.25;0.20;;;25.60;52.80;;;;;;5046821;28;20043;-38
2021/08/08 05:00:19;;;;;;;2.65;0.40;;;25.60;52.80;;;;;;5045933;28;20040;-38
2021/08/08 05:02:49;;;;;;;2.92;1.10;;;25.60;52.80;;;;;;5045751;28;20063;-38
2021/08/08 05:05:17;;;;;;;3.28;0.30;;;25.60;52.80;;;;;;5042986;28;20048;-38
2021/08/08 05:07:45;;;;;;;1.10;0.40;;;25.60;52.80;;;;;;5029689;28;20033;-39
2021/08/08 05:10:14;;;;;;;1.98;0.28;;;25.60;52.80;;;;;;5059678;28;20048;-38
2021/08/08 05:12:43;;;;;;;2.40;0.50;;;25.60;52.80;;;;;;5036026;28;20518;-38
2021/08/08 05:15:11;;;;;;;2.95;0.40;;;25.60;52.80;;;;;;5036080;28;20048;-38
2021/08/08 05:17:39;;;;;;;3.72;0.30;;;25.60;52.90;;;;;;5032697;28;20045;-38
2021/08/08 05:20:09;;;;;;;2.53;0.35;;;25.60;51.90;;;;;;5032978;28;20029;-38
2021/08/08 05:22:36;;;;;;;4.72;0.93;;;25.50;49.80;;;;;;5029312;28;20048;-38
2021/08/08 05:25:05;;;;;;;1.45;0.20;;;25.30;49.30;;;;;;5046535;28;20045;-39
2021/08/08 05:27:33;;;;;;;2.08;0.30;;;25.20;48.70;;;;;;5037179;28;20049;-38
2021/08/08 05:30:02;;;;;;;3.95;0.35;;;25.10;48.50;;;;;;5034267;28;20049;-38
2021/08/08 05:32:29;;;;;;;4.78;0.20;;;24.90;48.40;;;;;;5035988;28;20094;-38
2021/08/08 05:34:56;;;;;;;5.65;0.82;;;24.80;48.30;;;;;;5047352;28;20043;-38
2021/08/08 05:37:25;;;;;;;5.55;0.20;;;24.70;48.10;;;;;;5046020;28;20048;-38
2021/08/08 05:39:52;;;;;;;3.47;0.75;;;24.60;48.10;;;;;;5034004;28;20049;-38
2021/08/08 05:42:20;;;;;;;6.35;0.47;;;24.50;48.10;;;;;;5044127;28;20139;-38
2021/08/08 05:44:47;;;;;;;5.10;0.65;;;24.40;48.40;;;;;;5045501;28;20544;-38
2021/08/08 05:47:14;;;;;;;1.27;0.20;;;24.30;48.40;;;;;;5042400;28;20033;-38
2021/08/08 05:49:43;;;;;;;3.25;0.35;;;24.20;48.50;;;;;;5029634;28;20083;-38
2021/08/08 05:52:12;;;;;;;3.03;0.25;;;24.20;48.60;;;;;;5047469;28;20080;-38
2021/08/08 05:54:40;;;;;;;3.65;0.20;;;24.10;48.70;;;;;;5056378;28;20414;-39
2021/08/08 05:57:07;;;;;;;1.67;0.40;;;24.00;48.90;;;;;;5052123;28;20124;-38
2021/08/08 05:59:35;;;;;;;8.45;0.35;;;24.00;49.10;;;;;;5036625;28;20049;-39
2021/08/08 06:02:02;;;;;;;4.70;0.57;;;24.00;49.30;;;;;;5051902;28;20060;-38
2021/08/08 06:04:29;;;;;;;6.28;0.30;;;24.00;49.40;;;;;;5036117;28;20037;-37
2021/08/08 06:06:56;;;;;;;3.85;0.55;;;23.90;49.00;;;;;;5037547;28;20045;-37
2021/08/08 06:09:23;;;;;;;4.05;0.30;;;23.90;48.90;;;;;;5036828;28;20061;-37
2021/08/08 06:11:52;;;;;;;5.78;0.43;;;23.80;48.80;;;;;;5051739;28;20056;-37
2021/08/08 06:14:19;;;;;;;7.20;1.70;;;23.70;48.70;;;;;;5035981;28;20095;-36
2021/08/08 06:16:46;;;;;;;3.38;0.32;;;23.70;48.80;;;;;;5041848;28;20419;-37
2021/08/08 06:19:13;;;;;;;4.57;0.30;;;23.60;48.90;;;;;;5041822;28;20044;-37
2021/08/08 06:21:41;;;;;;;3.10;0.20;;;23.60;48.90;;;;;;5052132;28;20053;-37
2021/08/08 06:24:08;;;;;;;4.32;0.60;;;23.60;49.10;;;;;;5050238;28;20049;-37
2021/08/08 06:26:36;;;;;;;4.75;1.20;;;23.50;49.10;;;;;;5051008;28;20041;-37
2021/08/08 06:29:05;;;;;;;6.97;1.27;;;23.50;49.20;;;;;;5052089;28;20053;-37
2021/08/08 06:31:33;;;;;;;2.63;0.43;;;23.40;49.20;;;;;;5051463;28;20080;-38
2021/08/08 06:34:01;;;;;;;2.83;0.50;;;23.40;49.20;;;;;;5034028;28;20103;-38
2021/08/08 06:36:28;;;;;;;5.97;0.50;;;23.30;49.30;;;;;;5022146;28;20041;-38
2021/08/08 06:38:57;;;;;;;3.80;0.38;;;23.30;49.40;;;;;;5037182;28;20056;-38
2021/08/08 06:41:24;;;;;;;2.97;0.17;;;23.20;49.40;;;;;;5040812;28;20522;-40
2021/08/08 06:43:54;;;;;;;2.22;0.20;;;23.20;49.50;;;;;;5036595;28;20547;-38
2021/08/08 06:46:24;;;;;;;4.53;0.57;;;23.20;49.50;;;;;;5046703;28;20052;-38
2021/08/08 06:48:51;;;;;;;4.57;0.20;;;23.10;49.50;;;;;;5034279;28;20045;-39
2021/08/08 06:51:19;;;;;;;3.17;0.40;;;23.10;49.50;;;;;;5035531;28;20091;-39
2021/08/08 06:53:46;;;;;;;13.48;0.68;;;23.10;49.60;;;;;;5034913;28;20069;-39
2021/08/08 06:56:13;;;;;;;3.25;0.47;;;23.00;49.60;;;;;;5038177;28;20622;-39
2021/08/08 06:58:40;;;;;;;3.40;0.43;;;23.00;49.70;;;;;;5034042;28;20068;-39
2021/08/08 07:01:08;;;;;;;4.72;0.25;;;23.00;49.70;;;;;;5036190;28;20045;-39
2021/08/08 07:03:36;;;;;;;4.82;0.43;;;23.00;49.80;;;;;;5049702;28;20049;-38
2021/08/08 07:06:03;;;;;;;4.38;0.52;;;22.90;49.70;;;;;;5036372;28;20099;-38
2021/08/08 07:08:31;;;;;;;2.03;0.90;;;22.90;49.80;;;;;;5053350;28;20044;-38
2021/08/08 07:10:59;;;;;;;2.25;0.13;;;22.90;49.70;;;;;;5034619;28;20041;-38
2021/08/08 07:13:26;;;;;;;4.05;0.82;;;22.90;49.80;;;;;;5036426;28;20045;-38
2021/08/08 07:15:53;;;;;;;7.32;1.23;;;22.80;49.90;;;;;;5029049;28;20406;-38
2021/08/08 07:18:20;;;;;;;13.05;0.85;;;22.80;49.80;;;;;;5037063;28;20045;-38
2021/08/08 07:20:49;;;;;;;11.77;0.45;;;22.70;49.90;;;;;;5033578;28;20041;-43
2021/08/08 07:23:16;;;;;;;13.10;1.10;;;22.70;50.00;;;;;;5032536;28;20575;-45
2021/08/08 07:25:43;;;;;;;7.30;0.65;;;22.70;50.20;;;;;;5044507;28;20037;-46
2021/08/08 07:28:10;;;;;;;5.47;0.40;;;22.80;50.40;;;;;;5029042;28;20053;-40
2021/08/08 07:30:38;;;;;;;5.45;1.27;;;22.90;50.40;;;;;;5041226;28;20483;-48
2021/08/08 07:33:05;;;;;;;7.05;0.57;;;23.00;50.10;;;;;;5055543;28;20045;-48
2021/08/08 07:35:32;;;;;;;5.80;0.47;;;23.10;49.90;;;;;;5044741;28;20149;-47
2021/08/08 07:38:00;;;;;;;2.38;0.60;;;23.30;49.50;;;;;;5059657;28;20064;-51
2021/08/08 07:40:28;;;;;;;2.55;0.28;;;23.40;49.00;;;;;;5027719;28;20045;-49
2021/08/08 07:42:56;;;;;;;4.97;1.00;;;23.50;48.60;;;;;;5029489;28;20054;-55
2021/08/08 07:45:24;;;;;;;1.92;0.30;;;23.60;48.40;;;;;;5043915;28;20048;-50
2021/08/08 07:47:52;;;;;;;2.95;0.22;;;23.80;48.30;;;;;;5047951;28;20037;-61
2021/08/08 07:50:19;;;;;;;4.97;0.40;;;23.90;48.00;;;;;;5044639;28;20037;-51
2021/08/08 07:52:46;;;;;;;2.08;0.75;;;24.00;47.80;;;;;;5046698;28;20041;-54
2021/08/08 07:55:16;;;;;;;4.28;0.28;;;24.20;47.70;;;;;;5053614;28;20532;-50
2021/08/08 07:57:44;;;;;;;2.17;0.35;;;24.20;47.20;;;;;;5033422;28;20481;-48
2021/08/08 08:00:11;;;;;;;6.25;0.75;;;24.40;47.10;;;;;;5037437;28;20048;-53
2021/08/08 08:02:58;;;;;;;4.30;0.80;;;24.50;46.80;;;;;;5064449;28;20048;-56
2021/08/08 08:05:26;;;;;;;5.03;0.20;;;24.60;46.50;;;;;;5046609;28;20049;-56
2021/08/08 08:07:54;;;;;;;7.13;0.30;;;24.70;46.30;;;;;;5047008;28;20044;-54
2021/08/08 08:10:22;;;;;;;4.38;0.45;;;24.80;45.90;;;;;;5050582;28;20602;-54
2021/08/08 08:12:49;;;;;;;2.42;0.32;;;24.90;45.60;;;;;;5049432;28;20049;-54
2021/08/08 08:15:17;;;;;;;3.92;0.68;;;25.00;45.50;;;;;;5034724;28;20056;-49
2021/08/08 08:17:44;;;;;;;3.72;0.30;;;25.10;45.20;;;;;;5022640;28;20048;-63
2021/08/08 08:20:12;;;;;;;4.22;0.43;;;25.20;45.10;;;;;;5043360;28;20069;-53
2021/08/08 08:22:40;;;;;;;2.15;0.20;;;25.30;44.80;;;;;;5045736;28;20533;-49
2021/08/08 08:25:08;;;;;;;4.30;0.85;;;25.30;44.60;;;;;;5049423;28;20113;-48
2021/08/08 08:27:36;;;;;;;2.05;0.22;;;25.30;44.30;;;;;;5034844;28;20056;-41
2021/08/08 08:30:04;;;;;;;1.92;0.60;;;25.30;44.40;;;;;;5041743;28;20051;-42
2021/08/08 08:32:31;;;;;;;4.13;0.40;;;25.40;44.50;;;;;;5036108;28;20052;-41
2021/08/08 08:35:01;;;;;;;3.97;0.45;;;25.30;44.30;;;;;;5035222;28;20822;-52
2021/08/08 08:37:28;;;;;;;6.00;1.05;;;25.40;44.40;;;;;;5012400;28;20080;-53
2021/08/08 08:39:56;;;;;;;6.80;0.75;;;25.40;44.40;;;;;;5034968;28;20261;-50
2021/08/08 08:42:25;;;;;;;4.15;0.30;;;25.40;44.10;;;;;;5041870;28;20069;-48
2021/08/08 08:44:54;;;;;;;3.60;0.70;;;25.40;44.00;;;;;;5042027;28;20048;-48
2021/08/08 08:47:22;;;;;;;3.20;0.68;;;25.40;43.90;;;;;;5034761;28;20036;-58
2021/08/08 08:49:58;;;;;;;3.55;0.57;;;25.50;44.00;;;;;;5032000;28;20080;-55
2021/08/08 08:52:28;;;;;;;100.22;3.65;;;25.60;44.00;;;;;;5046672;28;20045;-62
2021/08/08 08:54:56;;;;;;;2.33;0.45;;;25.60;43.80;;;;;;5037099;28;20127;-64
2021/08/08 08:57:24;;;;;;;2.65;0.22;;;25.60;43.50;;;;;;5037788;28;20047;-46
2021/08/08 08:59:54;;;;;;;2.00;0.38;;;25.50;43.40;;;;;;5059055;28;20045;-46
2021/08/08 09:02:21;;;;;;;4.72;0.43;;;25.50;43.50;;;;;;5045658;28;20041;-45
2021/08/08 09:04:48;;;;;;;9.05;0.20;;;25.40;43.20;;;;;;5031080;28;20029;-50
2021/08/08 09:07:16;;;;;;;2.58;0.22;;;25.40;43.00;;;;;;5046522;28;20203;-64
2021/08/08 09:09:44;;;;;;;6.65;0.45;;;25.40;43.60;;;;;;5038100;28;20049;-63
2021/08/08 09:12:21;;;;;;;3.78;0.30;;;25.40;43.10;;;;;;5048018;28;20104;-61
2021/08/08 09:14:58;;;;;;;4.07;0.60;;;25.40;42.60;;;;;;5042328;28;20053;-69
2021/08/08 09:17:26;;;;;;;5.40;0.93;;;25.30;42.60;;;;;;5043573;28;20230;-45
2021/08/08 09:20:01;;;;;;;2.88;0.20;;;25.30;42.50;;;;;;5031482;28;20111;-55
2021/08/08 09:22:30;;;;;;;1.90;0.50;;;25.20;42.50;;;;;;5045289;28;20081;-56
2021/08/08 09:24:58;;;;;;;1.50;0.40;;;25.00;42.70;;;;;;5043966;28;20048;-54
2021/08/08 09:27:34;;;;;;;4.82;0.20;;;25.00;42.70;;;;;;5035708;28;20045;-54
2021/08/08 09:30:04;;;;;;;2.92;0.20;;;24.90;42.70;;;;;;5033941;28;20140;-56
2021/08/08 09:32:33;;;;;;;6.18;0.28;;;24.90;42.70;;;;;;5040659;28;20048;-56
2021/08/08 09:35:09;;;;;;;1.15;0.30;;;24.90;42.50;;;;;;5032716;28;20044;-56
2021/08/08 09:37:37;;;;;;;10.93;1.38;;;24.80;42.60;;;;;;5046712;28;20045;-59
2021/08/08 09:40:14;;;;;;;3.70;0.40;;;24.60;43.20;;;;;;5032470;28;20730;-58
2021/08/08 09:42:46;;;;;;;5.10;0.30;;;24.60;44.00;;;;;;5041820;28;20068;-58
2021/08/08 09:45:17;;;;;;;5.80;0.60;;;24.60;44.50;;;;;;5042780;28;20048;-57
2021/08/08 09:47:46;;;;;;;1.20;0.68;;;24.60;44.70;;;;;;5047032;28;20041;-58
2021/08/08 09:50:15;;;;;;;5.65;0.95;;;24.70;44.90;;;;;;5046843;28;20033;-58
2021/08/08 09:52:49;;;;;;;7.00;1.30;;;24.70;45.00;;;;;;5045545;28;20526;-57
2021/08/08 09:55:19;;;;;;;4.13;0.55;;;24.80;45.10;;;;;;5044055;28;20052;-53
2021/08/08 09:57:46;;;;;;;1.42;0.20;;;24.80;45.10;;;;;;5046290;28;20087;-58
2021/08/08 10:00:25;;;;;;;4.15;0.47;;;24.80;45.10;;;;;;5046526;28;20598;-56
2021/08/08 10:02:52;;;;;;;1.85;0.55;;;24.90;45.10;;;;;;5046504;28;20794;-57
2021/08/08 10:05:20;;;;;;;3.80;0.80;;;24.90;45.20;;;;;;5047107;28;20052;-55
2021/08/08 10:07:47;;;;;;;4.97;0.20;;;24.90;45.10;;;;;;5046432;28;20052;-57
2021/08/08 10:10:15;;;;;;;4.78;0.25;;;25.00;45.20;;;;;;5047440;28;20045;-55
2021/08/08 10:12:56;;;;;;;8.45;0.17;;;25.00;45.20;;;;;;5046868;28;20130;-56
2021/08/08 10:15:26;;;;;;;3.67;0.40;;;25.00;45.20;;;;;;5046216;28;20060;-58
2021/08/08 10:17:54;;;;;;;3.92;0.60;;;25.00;45.20;;;;;;5041719;28;20041;-55
2021/08/08 10:20:22;;;;;;;2.50;0.35;;;25.10;45.20;;;;;;5035522;28;20037;-55
2021/08/08 10:22:53;;;;;;;1.85;0.20;;;25.10;45.20;;;;;;5044441;28;20040;-57
2021/08/08 10:25:20;;;;;;;3.65;0.35;;;25.10;45.20;;;;;;5046426;28;20114;-57
2021/08/08 10:27:47;;;;;;;3.42;0.85;;;25.10;45.20;;;;;;5046182;28;20040;-57
2021/08/08 10:30:15;;;;;;;2.03;0.38;;;25.10;45.20;;;;;;5038135;28;20048;-57
2021/08/08 10:32:44;;;;;;;2.50;0.30;;;25.20;45.30;;;;;;5035061;28;20176;-57
2021/08/08 10:35:13;;;;;;;2.53;0.22;;;25.20;45.30;;;;;;5034039;28;20128;-57
2021/08/08 10:37:42;;;;;;;4.60;0.40;;;25.20;45.30;;;;;;5045877;28;20055;-56
2021/08/08 10:40:10;;;;;;;1.48;0.20;;;25.30;45.30;;;;;;5047425;28;20083;-57
2021/08/08 10:42:44;;;;;;;3.80;0.80;;;25.30;45.30;;;;;;5046026;28;20143;-57
2021/08/08 10:45:23;;;;;;;1.70;0.30;;;25.30;45.30;;;;;;5045589;28;20048;-56
2021/08/08 10:47:59;;;;;;;1.35;0.10;;;25.30;45.30;;;;;;5041865;28;20152;-57
2021/08/08 10:50:38;;;;;;;3.58;0.68;;;25.30;45.30;;;;;;5035758;28;20045;-55
2021/08/08 10:53:06;;;;;;;4.88;0.47;;;25.30;45.40;;;;;;5045001;28;20052;-57
2021/08/08 10:55:35;;;;;;;0.30;0.20;;;25.30;45.40;;;;;;5045814;28;20041;-55
2021/08/08 10:58:14;;;;;;;2.25;0.28;;;25.30;45.50;;;;;;5032869;28;20061;-57
2021/08/08 11:00:43;;;;;;;5.38;0.40;;;25.40;46.20;;;;;;5046313;28;20426;-58
2021/08/08 11:03:13;;;;;;;2.35;0.35;;;25.30;45.50;;;;;;5038689;28;20037;-58
2021/08/08 11:05:41;;;;;;;2.97;0.40;;;25.40;45.50;;;;;;5030438;28;20053;-57
2021/08/08 11:08:09;;;;;;;3.22;0.20;;;25.40;45.50;;;;;;5039707;28;20041;-58
2021/08/08 11:10:41;;;;;;;2.67;0.10;;;25.40;45.50;;;;;;5029620;28;20045;-57
2021/08/08 11:13:20;;;;;;;1.27;0.30;;;25.40;45.50;;;;;;5043644;28;20399;-53
2021/08/08 11:15:48;;;;;;;2.15;0.40;;;25.50;45.50;;;;;;5045846;28;20154;-58
2021/08/08 11:18:16;;;;;;;1.10;0.20;;;25.50;45.50;;;;;;5045759;28;20164;-55
2021/08/08 11:20:44;;;;;;;1.33;1.20;;;25.50;45.50;;;;;;5048361;28;20099;-57
2021/08/08 11:23:12;;;;;;;2.30;0.30;;;25.50;45.50;;;;;;5043265;28;20060;-58
2021/08/08 11:25:41;;;;;;;1.52;0.30;;;25.50;45.50;;;;;;5049554;28;20481;-57
2021/08/08 11:28:09;;;;;;;1.58;0.28;;;25.60;45.50;;;;;;5050831;28;20136;-60
2021/08/08 11:30:41;;;;;;;1.73;0.20;;;25.60;46.20;;;;;;5049674;28;20060;-53
2021/08/08 11:33:09;;;;;;;2.22;0.20;;;25.60;45.60;;;;;;5037008;28;20037;-57
2021/08/08 11:35:38;;;;;;;0.95;0.40;;;25.60;45.50;;;;;;5040469;28;20064;-56
2021/08/08 11:38:17;;;;;;;1.67;0.20;;;25.60;45.50;;;;;;5049839;28;20132;-57
2021/08/08 11:40:46;;;;;;;2.13;0.50;;;25.60;45.50;;;;;;5033619;28;20112;-57
2021/08/08 11:43:15;;;;;;;0.90;0.40;;;25.60;45.50;;;;;;5045657;28;20048;-56
2021/08/08 11:45:44;;;;;;;2.35;1.02;;;25.70;45.60;;;;;;5049863;28;20059;-57
2021/08/08 11:48:12;;;;;;;1.55;0.93;;;25.70;46.20;;;;;;5042648;28;20415;-59
2021/08/08 11:50:41;;;;;;;1.30;0.20;;;25.70;45.70;;;;;;5040919;28;20395;-57
2021/08/08 11:53:10;;;;;;;1.23;0.55;;;25.80;45.80;;;;;;5049609;28;20418;-55
2021/08/08 11:55:38;;;;;;;1.42;0.22;;;25.80;45.70;;;;;;5049218;28;20437;-57
2021/08/08 11:58:07;;;;;;;2.45;0.10;;;25.80;45.70;;;;;;5035915;28;20442;-58
2021/08/08 12:00:36;;;;;;;1.83;0.50;;;25.80;45.70;;;;;;5048595;28;20156;-58
2021/08/08 12:03:05;;;;;;;0.35;0.10;;;25.90;45.70;;;;;;5049260;28;20040;-55
2021/08/08 12:05:34;;;;;;;0.65;0.30;;;25.90;45.70;;;;;;5049001;28;20579;-55
2021/08/08 12:08:04;;;;;;;0.50;0.10;;;25.90;45.60;;;;;;5049310;28;20045;-56
2021/08/08 12:10:33;;;;;;;0.30;0.20;;;25.90;45.60;;;;;;5049128;28;20768;-57
2021/08/08 12:13:01;;;;;;;1.58;0.20;;;26.00;45.60;;;;;;5047323;28;20029;-57
2021/08/08 12:15:35;;;;;;;1.20;0.40;;;25.90;45.50;;;;;;5047440;28;20135;-57
2021/08/08 12:18:04;;;;;;;2.17;0.10;;;26.00;45.50;;;;;;5041770;28;20064;-57
2021/08/08 12:20:36;;;;;;;1.30;0.20;;;26.00;45.50;;;;;;5037649;28;20135;-56
2021/08/08 12:23:09;;;;;;;2.47;0.40;;;26.00;45.40;;;;;;5035703;28;20570;-56
2021/08/08 12:25:36;;;;;;;1.95;0.32;;;26.00;45.40;;;;;;5032502;28;20452;-58
2021/08/08 12:28:04;;;;;;;0.47;0.28;;;26.00;46.10;;;;;;5050192;28;20069;-57
2021/08/08 12:30:31;;;;;;;3.20;0.30;;;26.10;45.70;;;;;;5038636;28;20044;-59
2021/08/08 12:33:06;;;;;;;2.15;0.43;;;26.10;45.70;;;;;;5042721;28;20029;-59
2021/08/08 12:35:38;;;;;;;0.60;0.13;;;26.10;45.70;;;;;;5048211;28;20076;-57
2021/08/08 12:38:09;;;;;;;3.30;0.30;;;26.20;45.60;;;;;;5048517;28;20052;-58
2021/08/08 12:40:44;;;;;;;0.20;0.10;;;26.20;45.50;;;;;;5046719;28;20136;-55
2021/08/08 12:43:11;;;;;;;7.13;0.52;;;26.20;45.50;;;;;;5033947;28;20515;-55
2021/08/08 12:45:39;;;;;;;0.60;0.30;;;26.20;45.60;;;;;;5037056;28;20053;-57
2021/08/08 12:48:07;;;;;;;1.92;0.20;;;26.20;45.70;;;;;;5043822;28;20060;-57
2021/08/08 12:50:40;;;;;;;0.40;0.15;;;26.30;45.70;;;;;;5048353;28;20040;-55
2021/08/08 12:53:08;;;;;;;2.72;0.25;;;26.30;45.70;;;;;;5048611;28;20458;-57
2021/08/08 12:55:36;;;;;;;1.35;0.20;;;26.40;45.80;;;;;;5048068;28;20132;-56